createdAt,value
2022-08-05T00:01:27.655Z,22.30
2022-08-05T00:03:57.051Z,22.30
2022-08-05T00:06:32.187Z,22.30
2022-08-05T00:09:01.092Z,22.20
2022-08-05T00:11:34.784Z,22.30
2022-08-05T00:14:12.878Z,22.30
2022-08-05T00:16:53.015Z,22.20
2022-08-05T00:19:24.858Z,22.20
2022-08-05T00:22:01.311Z,22.20
2022-08-05T00:24:30.949Z,22.20
2022-08-05T00:27:04.824Z,22.20
2022-08-05T00:29:38.183Z,22.20
2022-08-05T00:32:13.476Z,22.20
2022-08-05T00:35:03.620Z,22.20
2022-08-05T00:37:51.240Z,22.30
2022-08-05T00:40:28.056Z,22.30
2022-08-05T00:43:00.779Z,22.30
2022-08-05T00:45:42.783Z,22.30
2022-08-05T00:48:16.242Z,22.40
2022-08-05T00:50:46.011Z,22.40
2022-08-05T00:54:01.003Z,22.40
2022-08-05T00:56:04.370Z,22.40
2022-08-05T00:58:31.325Z,22.40
2022-08-05T01:00:58.318Z,22.30
2022-08-05T01:03:31.037Z,22.30
2022-08-05T01:06:00.428Z,22.30
2022-08-05T01:08:42.202Z,22.30
2022-08-05T01:11:22.484Z,22.30
2022-08-05T01:14:15.322Z,22.20
2022-08-05T01:16:44.283Z,22.10
2022-08-05T01:19:36.683Z,22.10
2022-08-05T01:22:42.949Z,22.00
2022-08-05T01:25:53.368Z,22.00
2022-08-05T01:28:25.152Z,21.90
2022-08-05T01:31:03.010Z,21.90
2022-08-05T01:33:38.188Z,21.90
2022-08-05T01:36:16.152Z,21.90
2022-08-05T01:38:46.050Z,21.90
2022-08-05T01:41:21.747Z,21.80
2022-08-05T01:43:51.010Z,21.90
2022-08-05T01:46:42.599Z,21.90
2022-08-05T01:49:22.923Z,21.90
2022-08-05T01:51:52.081Z,21.80
2022-08-05T01:54:20.536Z,21.90
2022-08-05T01:58:11.343Z,21.90
2022-08-05T01:59:47.162Z,21.80
2022-08-05T02:02:16.008Z,21.80
2022-08-05T02:04:46.125Z,21.80
2022-08-05T02:07:22.423Z,21.80
2022-08-05T02:09:53.013Z,21.80
2022-08-05T02:12:27.700Z,21.80
2022-08-05T02:15:34.686Z,21.70
2022-08-05T02:18:31.228Z,21.70
2022-08-05T02:21:19.436Z,21.70
2022-08-05T02:23:54.960Z,21.60
2022-08-05T02:26:30.694Z,21.60
2022-08-05T02:28:58.529Z,21.70
2022-08-05T02:31:29.503Z,21.70
2022-08-05T02:34:09.195Z,21.60
2022-08-05T02:36:41.404Z,21.70
2022-08-05T02:39:10.287Z,21.70
2022-08-05T02:41:58.034Z,21.70
2022-08-05T02:44:27.154Z,21.70
2022-08-05T02:47:00.269Z,21.70
2022-08-05T02:49:36.195Z,21.70
2022-08-05T02:52:07.948Z,21.70
2022-08-05T02:54:41.510Z,21.60
2022-08-05T02:58:11.320Z,21.70
2022-08-05T03:00:01.278Z,21.70
2022-08-05T03:02:36.655Z,21.70
2022-08-05T03:05:05.043Z,21.70
2022-08-05T03:07:59.272Z,21.70
2022-08-05T03:10:21.990Z,21.70
2022-08-05T03:12:54.063Z,21.70
2022-08-05T03:15:23.431Z,21.70
2022-08-05T03:17:55.764Z,21.70
2022-08-05T03:20:23.642Z,21.70
2022-08-05T03:22:52.331Z,21.80
2022-08-05T03:25:34.055Z,21.80
2022-08-05T03:28:10.671Z,21.80
2022-08-05T03:30:42.294Z,21.70
2022-08-05T03:33:09.864Z,21.70
2022-08-05T03:35:40.715Z,21.70
2022-08-05T03:38:12.302Z,21.60
2022-08-05T03:40:47.233Z,21.50
2022-08-05T03:44:09.068Z,21.30
2022-08-05T03:46:05.054Z,21.30
2022-08-05T03:48:35.445Z,21.10
2022-08-05T03:52:38.008Z,21.00
2022-08-05T03:55:52.078Z,20.80
2022-08-05T03:56:54.280Z,20.70
2022-08-05T03:59:46.731Z,20.60
2022-08-05T04:02:37.952Z,20.50
2022-08-05T04:05:09.834Z,20.40
2022-08-05T04:07:58.261Z,20.40
2022-08-05T04:10:33.289Z,20.40
2022-08-05T04:13:06.885Z,20.30
2022-08-05T04:15:36.184Z,20.30
2022-08-05T04:18:09.414Z,20.40
2022-08-05T04:20:36.939Z,20.40
2022-08-05T04:23:04.498Z,20.40
2022-08-05T04:25:57.573Z,20.30
2022-08-05T04:28:30.911Z,20.40
2022-08-05T04:31:01.037Z,20.40
2022-08-05T04:34:19.302Z,20.40
2022-08-05T04:36:44.714Z,20.40
2022-08-05T04:39:02.974Z,20.40
2022-08-05T04:41:37.739Z,20.40
2022-08-05T04:44:09.266Z,20.30
2022-08-05T04:46:37.631Z,20.40
2022-08-05T04:49:12.197Z,20.40
2022-08-05T04:51:45.056Z,20.40
2022-08-05T04:54:12.557Z,20.40
2022-08-05T04:56:39.589Z,20.40
2022-08-05T04:59:21.596Z,20.50
2022-08-05T05:02:07.399Z,20.50
2022-08-05T05:04:38.291Z,20.50
2022-08-05T05:07:11.632Z,20.60
2022-08-05T05:09:43.032Z,20.70
2022-08-05T05:12:11.699Z,20.70
2022-08-05T05:14:38.731Z,20.70
2022-08-05T05:17:21.171Z,20.80
2022-08-05T05:19:52.838Z,20.80
2022-08-05T05:22:24.617Z,20.80
2022-08-05T05:24:58.433Z,20.90
2022-08-05T05:27:41.707Z,20.90
2022-08-05T05:30:30.449Z,20.90
2022-08-05T05:33:08.953Z,21.00
2022-08-05T05:35:44.263Z,21.10
2022-08-05T05:38:13.514Z,21.10
2022-08-05T05:40:48.383Z,21.20
2022-08-05T05:43:22.291Z,21.20
2022-08-05T05:46:10.658Z,21.30
2022-08-05T05:48:44.262Z,21.30
2022-08-05T05:51:15.636Z,21.40
2022-08-05T05:53:54.446Z,21.40
2022-08-05T05:56:32.347Z,21.50
2022-08-05T05:59:07.757Z,21.60
2022-08-05T06:01:40.222Z,21.70
2022-08-05T06:04:11.794Z,21.70
2022-08-05T06:06:41.770Z,21.80
2022-08-05T06:09:09.359Z,21.80
2022-08-05T06:12:01.696Z,21.90
2022-08-05T06:14:31.149Z,21.90
2022-08-05T06:16:58.758Z,21.90
2022-08-05T06:19:34.233Z,21.80
2022-08-05T06:22:03.499Z,21.90
2022-08-05T06:24:30.851Z,21.80
2022-08-05T06:26:58.192Z,21.80
2022-08-05T06:29:48.978Z,21.80
2022-08-05T06:32:21.378Z,21.80
2022-08-05T06:34:56.379Z,21.80
2022-08-05T06:37:39.431Z,21.90
2022-08-05T06:40:12.449Z,22.00
2022-08-05T06:42:40.765Z,22.00
2022-08-05T06:45:09.366Z,22.10
2022-08-05T06:48:44.248Z,22.20
2022-08-05T06:50:24.935Z,22.20
2022-08-05T06:53:03.962Z,22.30
2022-08-05T06:55:42.004Z,22.30
2022-08-05T06:58:30.019Z,22.40
2022-08-05T07:01:01.170Z,22.60
2022-08-05T07:03:32.884Z,22.70
2022-08-05T07:06:05.894Z,22.80
2022-08-05T07:08:47.938Z,22.80
2022-08-05T07:11:22.529Z,22.80
2022-08-05T07:14:20.010Z,22.90
2022-08-05T07:18:00.997Z,22.90
2022-08-05T07:20:22.999Z,23.10
2022-08-05T07:22:29.134Z,23.20
2022-08-05T07:24:59.402Z,23.20
2022-08-05T07:27:27.745Z,23.30
2022-08-05T07:30:24.715Z,23.30
2022-08-05T07:32:57.586Z,23.40
2022-08-05T07:36:02.116Z,23.40
2022-08-05T07:38:12.454Z,23.40
2022-08-05T07:41:00.325Z,23.40
2022-08-05T07:43:31.595Z,23.50
2022-08-05T07:46:01.767Z,23.60
2022-08-05T07:49:02.655Z,23.60
2022-08-05T07:51:23.557Z,23.80
2022-08-05T07:54:03.383Z,24.00
2022-08-05T07:57:00.611Z,24.00
2022-08-05T07:59:17.256Z,23.90
2022-08-05T08:01:52.247Z,23.90
2022-08-05T08:04:37.386Z,24.00
2022-08-05T08:07:05.523Z,24.10
2022-08-05T08:09:34.840Z,24.20
2022-08-05T08:12:11.000Z,24.40
2022-08-05T08:14:46.698Z,24.60
2022-08-05T08:17:16.201Z,24.70
2022-08-05T08:20:21.419Z,24.80
2022-08-05T08:22:32.325Z,24.90
2022-08-05T08:25:03.200Z,25.20
2022-08-05T08:27:44.788Z,25.30
2022-08-05T08:30:30.074Z,25.50
2022-08-05T08:33:08.243Z,25.60
2022-08-05T08:35:40.869Z,25.60
2022-08-05T08:38:11.603Z,25.60
2022-08-05T08:40:50.504Z,25.70
2022-08-05T08:44:56.441Z,25.70
2022-08-05T08:46:06.764Z,25.60
2022-08-05T08:49:02.969Z,25.70
2022-08-05T08:52:03.127Z,25.70
2022-08-05T08:54:19.769Z,25.80
2022-08-05T08:56:47.923Z,25.90
2022-08-05T08:59:19.787Z,26.00
2022-08-05T09:01:57.492Z,26.10
2022-08-05T09:04:30.492Z,26.10
2022-08-05T09:06:58.459Z,26.00
2022-08-05T09:09:34.617Z,26.10
2022-08-05T09:12:20.246Z,26.10
2022-08-05T09:14:58.978Z,26.10
2022-08-05T09:17:40.909Z,26.10
2022-08-05T09:20:10.802Z,26.00
2022-08-05T09:23:05.172Z,25.90
2022-08-05T09:26:03.069Z,25.90
2022-08-05T09:28:31.922Z,25.80
2022-08-05T09:31:43.687Z,25.80
2022-08-05T09:34:09.646Z,25.70
2022-08-05T09:36:55.300Z,25.50
2022-08-05T09:39:39.465Z,25.40
2022-08-05T09:42:17.473Z,25.30
2022-08-05T09:44:52.427Z,25.20
2022-08-05T09:47:29.476Z,25.10
2022-08-05T09:50:13.768Z,25.00
2022-08-05T09:52:45.812Z,25.00
2022-08-05T09:55:57.872Z,24.80
2022-08-05T09:58:00.381Z,24.60
2022-08-05T10:00:30.506Z,24.30
2022-08-05T10:02:58.366Z,24.10
2022-08-05T10:05:28.671Z,23.90
2022-08-05T10:08:36.876Z,23.70
2022-08-05T10:10:50.198Z,23.50
2022-08-05T10:13:54.768Z,23.40
2022-08-05T10:16:37.903Z,23.30
2022-08-05T10:19:23.468Z,23.20
2022-08-05T10:21:51.207Z,23.20
2022-08-05T10:24:19.977Z,23.10
2022-08-05T10:26:54.870Z,23.10
2022-08-05T10:30:07.180Z,23.10
2022-08-05T10:32:51.580Z,23.10
2022-08-05T10:35:01.406Z,23.10
2022-08-05T10:37:40.322Z,23.10
2022-08-05T10:40:58.085Z,23.10
2022-08-05T10:43:45.988Z,23.10
2022-08-05T10:46:17.806Z,23.00
2022-08-05T10:48:57.261Z,23.00
2022-08-05T10:51:28.799Z,23.00
2022-08-05T10:54:28.444Z,22.90
2022-08-05T10:56:52.918Z,22.90
2022-08-05T11:00:02.075Z,22.90
2022-08-05T11:02:38.247Z,22.90
2022-08-05T11:05:10.359Z,22.80
2022-08-05T11:08:01.322Z,22.70
2022-08-05T11:10:33.464Z,22.50
2022-08-05T11:13:01.297Z,22.40
2022-08-05T11:16:01.032Z,22.30
2022-08-05T11:18:34.301Z,22.10
2022-08-05T11:21:06.288Z,21.90
2022-08-05T11:24:05.094Z,21.70
2022-08-05T11:26:43.364Z,21.50
2022-08-05T11:29:42.718Z,21.40
2022-08-05T11:32:27.304Z,21.10
2022-08-05T11:34:55.333Z,21.00
2022-08-05T11:38:28.356Z,21.00
2022-08-05T11:41:34.480Z,20.90
2022-08-05T11:44:40.576Z,20.80
2022-08-05T11:47:12.168Z,20.80
2022-08-05T11:49:43.444Z,20.70
2022-08-05T11:52:29.079Z,20.60
2022-08-05T11:54:58.816Z,20.60
2022-08-05T11:57:30.599Z,20.60
2022-08-05T12:00:29.107Z,20.70
2022-08-05T12:02:57.562Z,20.80
2022-08-05T12:05:36.046Z,20.80
2022-08-05T12:08:09.997Z,20.90
2022-08-05T12:10:45.532Z,20.90
2022-08-05T12:13:47.318Z,21.00
2022-08-05T12:16:17.484Z,21.00
2022-08-05T12:18:49.593Z,21.00
2022-08-05T12:21:41.927Z,21.00
2022-08-05T12:24:14.387Z,20.90
2022-08-05T12:26:44.547Z,20.90
2022-08-05T12:29:26.420Z,20.90
2022-08-05T12:31:58.094Z,20.90
2022-08-05T12:34:31.841Z,20.90
2022-08-05T12:37:07.491Z,21.00
2022-08-05T12:39:38.579Z,21.00
2022-08-05T12:42:14.484Z,21.10
2022-08-05T12:44:44.565Z,21.20
2022-08-05T12:47:12.426Z,21.30
2022-08-05T12:50:04.492Z,21.30
2022-08-05T12:52:38.641Z,21.30
2022-08-05T12:55:26.920Z,21.30
2022-08-05T12:58:49.052Z,21.30
2022-08-05T13:02:02.930Z,21.30
2022-08-05T13:03:41.749Z,21.30
2022-08-05T13:06:17.134Z,21.20
2022-08-05T13:08:51.398Z,21.20
2022-08-05T13:11:59.813Z,21.10
2022-08-05T13:14:36.583Z,21.10
2022-08-05T13:17:32.071Z,21.00
2022-08-05T13:20:23.210Z,20.90
2022-08-05T13:22:53.288Z,20.90
2022-08-05T13:25:22.143Z,20.80
2022-08-05T13:28:07.905Z,20.80
2022-08-05T13:30:38.870Z,20.80
2022-08-05T13:33:06.208Z,20.80
2022-08-05T13:35:47.543Z,20.70
2022-08-05T13:38:30.473Z,20.60
2022-08-05T13:41:01.312Z,20.60
2022-08-05T13:43:44.330Z,20.50
2022-08-05T13:46:16.109Z,20.50
2022-08-05T13:48:58.742Z,20.50
2022-08-05T13:51:36.416Z,20.40
2022-08-05T13:54:12.378Z,20.30
2022-08-05T13:56:45.576Z,20.30
2022-08-05T13:59:24.106Z,20.30
2022-08-05T14:01:58.063Z,20.20
2022-08-05T14:04:51.585Z,20.10
2022-08-05T14:07:59.871Z,20.10
2022-08-05T14:10:28.981Z,20.10
2022-08-05T14:12:58.005Z,20.10
2022-08-05T14:16:08.566Z,20.00
2022-08-05T14:18:17.639Z,20.10
2022-08-05T14:20:55.074Z,20.10
2022-08-05T14:23:25.236Z,20.10
2022-08-05T14:25:58.094Z,20.10
2022-08-05T14:28:27.685Z,20.10
2022-08-05T14:30:56.021Z,20.10
2022-08-05T14:33:23.695Z,20.10
2022-08-05T14:35:54.036Z,20.10
2022-08-05T14:38:32.911Z,20.10
2022-08-05T14:41:06.966Z,20.10
2022-08-05T14:43:59.160Z,20.10
2022-08-05T14:46:29.134Z,20.10
2022-08-05T14:48:59.674Z,20.10
2022-08-05T14:51:34.739Z,20.10
2022-08-05T14:54:30.097Z,20.10
2022-08-05T14:56:48.851Z,20.20
2022-08-05T14:59:18.353Z,20.20
2022-08-05T15:01:49.630Z,20.30
2022-08-05T15:04:20.769Z,20.20
2022-08-05T15:06:50.451Z,20.20
2022-08-05T15:09:51.331Z,20.30
2022-08-05T15:12:11.611Z,20.30
2022-08-05T15:14:49.587Z,20.40
2022-08-05T15:17:45.680Z,20.30
2022-08-05T15:20:18.371Z,20.40
2022-08-05T15:22:54.400Z,20.40
2022-08-05T15:25:51.667Z,20.40
2022-08-05T15:28:14.360Z,20.50
2022-08-05T15:30:43.664Z,20.50
2022-08-05T15:33:12.869Z,20.50
2022-08-05T15:35:59.803Z,20.40
2022-08-05T15:38:35.511Z,20.40
2022-08-05T15:41:22.583Z,20.40
2022-08-05T15:43:50.867Z,20.20
2022-08-05T15:46:20.627Z,20.30
2022-08-05T15:48:52.511Z,20.20
2022-08-05T15:52:03.608Z,20.20
2022-08-05T15:54:16.207Z,20.20
2022-08-05T15:56:43.509Z,20.20
2022-08-05T15:59:21.839Z,20.10
2022-08-05T16:01:53.087Z,20.10
2022-08-05T16:04:25.463Z,20.10
2022-08-05T16:06:56.083Z,20.00
2022-08-05T16:09:24.129Z,20.00
2022-08-05T16:11:53.717Z,20.00
2022-08-05T16:14:21.836Z,20.00
2022-08-05T16:16:49.497Z,20.00
2022-08-05T16:19:25.475Z,20.00
2022-08-05T16:22:03.784Z,20.00
2022-08-05T16:24:39.507Z,20.00
2022-08-05T16:27:09.150Z,20.00
2022-08-05T16:29:37.123Z,20.00
2022-08-05T16:32:09.592Z,20.00
2022-08-05T16:34:39.229Z,20.00
2022-08-05T16:38:01.914Z,20.00
2022-08-05T16:40:05.267Z,20.00
2022-08-05T16:42:34.555Z,20.10
2022-08-05T16:45:02.019Z,20.10
2022-08-05T16:47:54.304Z,20.20
2022-08-05T16:50:24.658Z,20.20
2022-08-05T16:52:51.576Z,20.20
2022-08-05T16:55:20.406Z,20.20
2022-08-05T16:57:53.461Z,20.20
2022-08-05T17:00:35.119Z,20.20
2022-08-05T17:03:09.120Z,20.20
2022-08-05T17:05:42.432Z,20.10
2022-08-05T17:08:09.405Z,20.10
2022-08-05T17:10:40.262Z,20.10
2022-08-05T17:13:16.982Z,20.00
2022-08-05T17:15:49.741Z,20.00
2022-08-05T17:18:19.892Z,20.00
2022-08-05T17:20:47.658Z,19.90
2022-08-05T17:24:05.811Z,19.90
2022-08-05T17:26:03.583Z,19.90
2022-08-05T17:28:31.336Z,19.90
2022-08-05T17:30:58.184Z,19.80
2022-08-05T17:33:25.433Z,19.80
2022-08-05T17:36:07.877Z,19.80
2022-08-05T17:38:37.183Z,19.80
2022-08-05T17:41:06.976Z,19.70
2022-08-05T17:43:54.374Z,19.70
2022-08-05T17:46:21.369Z,19.70
2022-08-05T17:48:48.309Z,19.70
2022-08-05T17:51:21.909Z,19.70
2022-08-05T17:53:50.826Z,19.60
2022-08-05T17:56:21.564Z,19.60
2022-08-05T17:58:49.922Z,19.60
2022-08-05T18:01:18.382Z,19.60
2022-08-05T18:04:04.051Z,19.60
2022-08-05T18:06:32.517Z,19.50
2022-08-05T18:08:59.587Z,19.50
2022-08-05T18:11:32.915Z,19.50
2022-08-05T18:14:07.103Z,19.50
2022-08-05T18:16:35.577Z,19.50
2022-08-05T18:19:13.801Z,19.50
2022-08-05T18:22:08.611Z,19.50
2022-08-05T18:24:28.163Z,19.50
2022-08-05T18:26:55.110Z,19.50
2022-08-05T18:29:40.381Z,19.50
2022-08-05T18:32:12.647Z,19.50
2022-08-05T18:34:41.500Z,19.40
2022-08-05T18:37:12.169Z,19.40
2022-08-05T18:40:31.127Z,19.40
2022-08-05T18:42:27.038Z,19.40
2022-08-05T18:44:56.238Z,19.40
2022-08-05T18:47:26.717Z,19.40
2022-08-05T18:50:13.189Z,19.40
2022-08-05T18:52:51.236Z,19.40
2022-08-05T18:55:20.292Z,19.40
2022-08-05T18:57:53.401Z,19.30
2022-08-05T19:00:28.704Z,19.30
2022-08-05T19:02:56.698Z,19.30
2022-08-05T19:06:13.002Z,19.30
2022-08-05T19:08:13.462Z,19.20
2022-08-05T19:10:40.804Z,19.20
2022-08-05T19:13:07.751Z,19.10
2022-08-05T19:15:58.045Z,19.10
2022-08-05T19:18:26.920Z,18.90
2022-08-05T19:20:54.529Z,18.80
2022-08-05T19:24:05.377Z,18.80
2022-08-05T19:26:11.935Z,18.70
2022-08-05T19:28:43.234Z,18.70
2022-08-05T19:31:13.262Z,18.70
2022-08-05T19:33:48.631Z,18.50
2022-08-05T19:36:27.175Z,18.40
2022-08-05T19:39:00.798Z,18.20
2022-08-05T19:42:05.690Z,18.00
2022-08-05T19:44:16.362Z,17.90
2022-08-05T19:46:43.953Z,17.80
2022-08-05T19:49:12.492Z,17.70
2022-08-05T19:52:09.007Z,17.70
2022-08-05T19:54:32.854Z,17.70
2022-08-05T19:57:02.644Z,17.60
2022-08-05T19:59:55.178Z,17.60
2022-08-05T20:02:21.480Z,17.50
2022-08-05T20:04:50.215Z,17.40
2022-08-05T20:07:38.981Z,17.30
2022-08-05T20:10:13.526Z,17.20
2022-08-05T20:12:48.135Z,17.20
2022-08-05T20:15:22.981Z,17.20
2022-08-05T20:18:10.738Z,17.10
2022-08-05T20:20:56.578Z,17.00
2022-08-05T20:23:39.398Z,17.00
2022-08-05T20:26:15.986Z,17.00
2022-08-05T20:28:51.222Z,16.90
2022-08-05T20:31:28.364Z,16.90
2022-08-05T20:34:04.825Z,16.90
2022-08-05T20:36:31.759Z,16.90
2022-08-05T20:38:59.643Z,16.90
2022-08-05T20:41:44.309Z,16.90
2022-08-05T20:44:18.978Z,16.90
2022-08-05T20:46:57.831Z,16.90
2022-08-05T20:49:25.954Z,16.80
2022-08-05T20:51:54.590Z,16.80
2022-08-05T20:54:23.027Z,16.70
2022-08-05T20:56:53.005Z,16.70
2022-08-05T20:59:27.168Z,16.70
2022-08-05T21:02:07.713Z,16.70
2022-08-05T21:04:36.341Z,16.70
2022-08-05T21:07:04.708Z,16.70
2022-08-05T21:09:31.629Z,16.80
2022-08-05T21:12:08.245Z,16.70
2022-08-05T21:14:38.038Z,16.80
2022-08-05T21:17:05.908Z,16.80
2022-08-05T21:19:46.443Z,16.80
2022-08-05T21:22:23.490Z,16.80
2022-08-05T21:24:52.532Z,16.80
2022-08-05T21:27:24.984Z,16.70
2022-08-05T21:29:55.459Z,16.70
2022-08-05T21:32:27.677Z,16.70
2022-08-05T21:35:17.484Z,16.60
2022-08-05T21:37:52.768Z,16.60
2022-08-05T21:40:23.867Z,16.60
2022-08-05T21:42:53.545Z,16.60
2022-08-05T21:45:25.057Z,16.70
2022-08-05T21:48:08.669Z,16.70
2022-08-05T21:50:36.732Z,16.70
2022-08-05T21:53:16.205Z,16.70
2022-08-05T21:56:04.794Z,16.70
2022-08-05T21:58:32.211Z,16.70
2022-08-05T22:01:00.413Z,16.70
2022-08-05T22:03:52.405Z,16.70
2022-08-05T22:06:15.998Z,16.80
2022-08-05T22:08:50.544Z,16.80
2022-08-05T22:11:34.683Z,16.90
2022-08-05T22:14:33.836Z,16.90
2022-08-05T22:16:56.797Z,17.00
2022-08-05T22:20:02.180Z,17.00
2022-08-05T22:22:13.099Z,17.00
2022-08-05T22:25:00.346Z,17.00
2022-08-05T22:28:11.418Z,17.00
2022-08-05T22:30:35.839Z,17.00
2022-08-05T22:33:15.575Z,17.00
2022-08-05T22:35:48.976Z,17.00
2022-08-05T22:38:17.189Z,16.90
2022-08-05T22:40:49.336Z,17.00
2022-08-05T22:43:36.172Z,16.90
2022-08-05T22:46:12.256Z,17.00
2022-08-05T22:48:50.169Z,16.90
2022-08-05T22:51:23.203Z,17.00
2022-08-05T22:54:04.751Z,17.00
2022-08-05T22:56:32.307Z,17.00
2022-08-05T22:59:04.187Z,17.00
2022-08-05T23:02:03.985Z,17.00
2022-08-05T23:04:32.210Z,17.00
2022-08-05T23:06:59.316Z,16.90
2022-08-05T23:09:27.475Z,16.80
2022-08-05T23:12:13.249Z,16.80
2022-08-05T23:14:43.633Z,16.70
2022-08-05T23:17:34.315Z,16.70
2022-08-05T23:20:10.536Z,16.60
2022-08-05T23:22:47.697Z,16.70
2022-08-05T23:25:51.216Z,16.70
2022-08-05T23:28:06.843Z,16.70
2022-08-05T23:30:40.215Z,16.70
2022-08-05T23:33:21.928Z,16.70
2022-08-05T23:35:55.960Z,16.70
2022-08-05T23:38:26.020Z,16.60
2022-08-05T23:40:53.892Z,16.60
2022-08-05T23:43:25.408Z,16.60
2022-08-05T23:46:20.716Z,16.60
2022-08-05T23:49:01.171Z,16.60
2022-08-05T23:51:53.301Z,16.60
2022-08-05T23:54:25.225Z,16.50
2022-08-05T23:56:58.271Z,16.60
